Little Mackinaw, Illinois
Current Conditions -  °F | °C
As of 5:35 PM on Saturday 25 Oct 2014 (Local Time) from KAAA Reporting Station
Clear Clear  
Wind Chill: 23°   Ceiling: Unl
Heat Index: 23°   Visibility: 10mi
Dew Point:   Wind: 0mph
Humidity: 38%   Direction: NA
Pressure: 29.97"   Gusts: NA
Location:  40.4411°N, 89.3259°W
Report Text: KAAA 252235Z AUTO 00000KT 10SM CLR 23/08 A2997 RMK AO2 T02300081
Loading
Personal Weather Stations






























Interactive Weather Map
Tropical Storm Tracking
New forecast layout! Learn more

10-Day Weather Forecast

Advertisements
Track Severe Weather on mobile